Time;durP1;ratioP1;P1;durP2;ratioP2;P2;SDS_P1;SDS_P2;PMS_P1;PMS_P2;Temp;Humidity;BMP_temperature;BMP_pressure;BME280_temperature;BME280_humidity;BME280_pressure;Samples;Min_cycle;Max_cycle;Signal;HPM_P1;HPM_P2
2021/11/22 00:02:15;;;;;;;0.50;0.43;;;;;20.90;100238.00;;;;4784286;30;20063;-81
2021/11/22 00:04:44;;;;;;;2.75;0.80;;;;;20.80;100253.00;;;;4782312;30;20051;-82
2021/11/22 00:07:15;;;;;;;1.90;0.90;;;;;21.00;100257.00;;;;4784227;30;20055;-83
2021/11/22 00:09:45;;;;;;;1.75;0.73;;;;;21.00;100234.00;;;;4783953;29;20051;-81
2021/11/22 00:12:15;;;;;;;0.20;0.20;;;;;20.90;100246.00;;;;4784243;29;20051;-80
2021/11/22 00:14:44;;;;;;;2.60;1.48;;;;;20.70;100253.00;;;;4782516;29;20455;-83
2021/11/22 00:17:14;;;;;;;0.57;0.57;;;;;20.60;100258.00;;;;4783882;29;20039;-78
2021/11/22 00:19:43;;;;;;;0.85;0.68;;;;;20.60;100259.00;;;;4767621;29;20493;-81
2021/11/22 00:22:13;;;;;;;0.60;0.43;;;;;20.50;100259.00;;;;4783419;29;20531;-80
2021/11/22 00:24:43;;;;;;;0.20;0.20;;;;;20.50;100253.00;;;;4781945;29;20542;-82
2021/11/22 00:27:12;;;;;;;1.48;0.75;;;;;20.50;100251.00;;;;4782973;29;20062;-79
2021/11/22 00:29:41;;;;;;;0.65;0.55;;;;;20.40;100256.00;;;;4782764;29;20128;-79
2021/11/22 00:32:23;;;;;;;1.15;0.55;;;;;20.40;100239.00;;;;4771913;30;20127;-79
2021/11/22 00:35:13;;;;;;;0.55;0.25;;;;;20.50;100249.00;;;;4773255;30;20063;-77
2021/11/22 00:37:49;;;;;;;0.68;0.50;;;;;20.60;100253.00;;;;4787060;30;20132;-82
2021/11/22 00:40:19;;;;;;;0.20;0.20;;;;;20.40;100253.00;;;;4773911;30;20079;-80
2021/11/22 00:42:50;;;;;;;0.57;0.57;;;;;20.40;100245.00;;;;4784651;30;20101;-79
2021/11/22 00:45:19;;;;;;;0.35;0.28;;;;;20.20;100249.00;;;;4770980;30;20086;-79
2021/11/22 00:47:49;;;;;;;1.85;0.47;;;;;20.20;100265.00;;;;4766210;30;20125;-81
2021/11/22 00:50:18;;;;;;;0.30;0.28;;;;;20.20;100261.00;;;;4765649;30;20052;-80
2021/11/22 00:52:49;;;;;;;0.40;0.30;;;;;20.30;100268.00;;;;4779087;30;20082;-84
2021/11/22 00:55:19;;;;;;;0.43;0.30;;;;;20.20;100266.00;;;;4765350;30;20159;-80
2021/11/22 00:57:49;;;;;;;0.08;0.08;;;;;20.10;100266.00;;;;4781945;30;20055;-79
2021/11/22 01:00:21;;;;;;;1.02;0.43;;;;;20.10;100264.00;;;;4781586;30;20047;-81
2021/11/22 01:02:51;;;;;;;0.45;0.35;;;;;20.10;100248.00;;;;4780493;29;20076;-82
2021/11/22 01:05:20;;;;;;;0.80;0.68;;;;;20.10;100253.00;;;;4780994;30;20075;-82
2021/11/22 01:07:49;;;;;;;0.38;0.38;;;;;20.10;100257.00;;;;4780973;29;20047;-83
2021/11/22 01:10:20;;;;;;;0.20;0.10;;;;;20.10;100274.00;;;;4780423;30;20439;-78
2021/11/22 01:12:52;;;;;;;1.90;0.30;;;;;20.20;100259.00;;;;4782746;30;20559;-84
2021/11/22 01:15:23;;;;;;;0.30;0.30;;;;;20.10;100265.00;;;;4783154;29;20053;-82
2021/11/22 01:17:54;;;;;;;0.63;0.60;;;;;20.00;100262.00;;;;4783442;29;20103;-81
2021/11/22 01:20:31;;;;;;;0.03;0.03;;;;;20.20;100264.00;;;;4783177;30;20328;-81
2021/11/22 01:23:04;;;;;;;0.00;0.00;;;;;20.20;100263.00;;;;4783090;29;20051;-81
2021/11/22 01:25:34;;;;;;;0.98;0.88;;;;;20.30;100256.00;;;;4783527;30;20051;-80
2021/11/22 01:28:05;;;;;;;0.10;0.10;;;;;20.30;100256.00;;;;4782725;29;20055;-83
2021/11/22 01:30:35;;;;;;;1.60;0.97;;;;;20.50;100243.00;;;;4782524;30;20419;-81
2021/11/22 01:33:05;;;;;;;0.08;0.00;;;;;20.60;100250.00;;;;4782078;29;20051;-82
2021/11/22 01:35:34;;;;;;;0.25;0.25;;;;;20.50;100255.00;;;;4782590;29;20055;-81
2021/11/22 01:38:06;;;;;;;0.05;0.05;;;;;20.60;100242.00;;;;4782491;29;20561;-76
2021/11/22 01:40:36;;;;;;;0.00;0.00;;;;;21.10;100249.00;;;;4782169;30;20051;-79
2021/11/22 01:43:06;;;;;;;0.05;0.05;;;;;21.00;100247.00;;;;4780715;29;20485;-79
2021/11/22 01:45:37;;;;;;;0.00;0.00;;;;;20.90;100262.00;;;;4782031;29;20059;-82
2021/11/22 01:48:07;;;;;;;0.00;0.00;;;;;20.80;100253.00;;;;4782612;30;20516;-83
2021/11/22 01:50:36;;;;;;;0.08;0.08;;;;;20.80;100252.00;;;;4781429;30;20110;-84
2021/11/22 01:53:06;;;;;;;1.25;0.17;;;;;20.70;100256.00;;;;4782053;29;20124;-80
2021/11/22 01:55:36;;;;;;;0.03;0.03;;;;;20.60;100249.00;;;;4782453;29;20189;-82
2021/11/22 01:58:06;;;;;;;0.00;0.00;;;;;20.40;100248.00;;;;4786763;29;20081;-77
2021/11/22 02:00:39;;;;;;;0.10;0.10;;;;;20.40;100244.00;;;;4787874;29;20051;-81
2021/11/22 02:03:10;;;;;;;0.15;0.15;;;;;20.50;100251.00;;;;4781118;29;20489;-81
2021/11/22 02:05:40;;;;;;;0.00;0.00;;;;;20.50;100258.00;;;;4782487;29;20063;-82
2021/11/22 02:08:10;;;;;;;0.00;0.00;;;;;20.20;100235.00;;;;4780980;30;20055;-80
2021/11/22 02:10:40;;;;;;;;;;;;;20.00;100256.00;;;;4796280;29;20055;-81
2021/11/22 02:13:09;;;;;;;0.05;0.05;;;;;19.90;100245.00;;;;4782901;29;20379;-79
2021/11/22 02:15:39;;;;;;;0.57;0.50;;;;;19.70;100246.00;;;;4782028;29;20054;-81
2021/11/22 02:18:09;;;;;;;0.32;0.30;;;;;19.50;100246.00;;;;4781847;29;20055;-80
2021/11/22 02:20:38;;;;;;;0.10;0.10;;;;;19.40;100238.00;;;;4782165;30;20419;-80
2021/11/22 02:23:10;;;;;;;0.35;0.35;;;;;19.30;100243.00;;;;4780579;29;20059;-83
2021/11/22 02:25:43;;;;;;;0.88;0.43;;;;;19.20;100244.00;;;;4781964;30;20571;-84
2021/11/22 02:28:15;;;;;;;0.00;0.00;;;;;19.00;100233.00;;;;4780552;29;20066;-81
2021/11/22 02:30:47;;;;;;;2.28;0.80;;;;;18.80;100240.00;;;;4780613;30;20054;-82
2021/11/22 02:33:20;;;;;;;0.52;0.32;;;;;18.80;100229.00;;;;4780110;30;20060;-82
2021/11/22 02:35:54;;;;;;;0.10;0.00;;;;;18.80;100232.00;;;;4780729;29;20062;-84
2021/11/22 02:38:39;;;;;;;0.25;0.10;;;;;18.80;100233.00;;;;4782581;29;20039;-81
2021/11/22 02:41:10;;;;;;;0.57;0.57;;;;;18.80;100257.00;;;;4781802;30;20062;-81
2021/11/22 02:43:42;;;;;;;0.10;0.10;;;;;18.80;100231.00;;;;4781515;30;20054;-81
2021/11/22 02:46:12;;;;;;;;;;;;;18.60;100231.00;;;;4781072;29;20131;-81
2021/11/22 02:48:41;;;;;;;0.00;0.00;;;;;18.60;100243.00;;;;4781543;29;20295;-82
2021/11/22 02:51:11;;;;;;;0.35;0.30;;;;;18.60;100229.00;;;;4780350;29;20055;-81
2021/11/22 02:53:40;;;;;;;0.47;0.47;;;;;18.60;100243.00;;;;4784673;29;20694;-84
2021/11/22 02:56:10;;;;;;;0.00;0.00;;;;;18.50;100244.00;;;;4784888;29;20104;-81
2021/11/22 02:58:40;;;;;;;0.03;0.03;;;;;18.30;100227.00;;;;4785544;29;20112;-79
2021/11/22 03:01:12;;;;;;;0.00;0.00;;;;;18.10;100227.00;;;;4786144;29;20059;-80
2021/11/22 03:03:42;;;;;;;0.03;0.03;;;;;18.10;100226.00;;;;4784942;29;20126;-81
2021/11/22 03:06:14;;;;;;;0.30;0.30;;;;;18.10;100228.00;;;;4783762;29;20108;-80
2021/11/22 03:08:46;;;;;;;0.00;0.00;;;;;18.10;100212.00;;;;4784930;29;20075;-82
2021/11/22 03:11:17;;;;;;;0.00;0.00;;;;;18.00;100239.00;;;;4785000;29;20113;-78
2021/11/22 03:13:47;;;;;;;;;;;;;18.10;100248.00;;;;4785531;29;20079;-84
2021/11/22 03:16:18;;;;;;;0.00;0.00;;;;;18.10;100244.00;;;;4785501;29;20381;-80
2021/11/22 03:18:48;;;;;;;0.00;0.00;;;;;18.10;100224.00;;;;4783500;29;20066;-79
2021/11/22 03:21:17;;;;;;;0.45;0.10;;;;;18.20;100223.00;;;;4784431;30;20044;-85
2021/11/22 03:23:47;;;;;;;0.10;0.10;;;;;18.10;100230.00;;;;4783867;30;20827;-79
2021/11/22 03:26:16;;;;;;;1.00;0.47;;;;;18.10;100224.00;;;;4783965;29;20062;-80
2021/11/22 03:28:46;;;;;;;0.22;0.08;;;;;18.00;100237.00;;;;4768485;29;20080;-84
2021/11/22 03:31:15;;;;;;;0.10;0.10;;;;;17.90;100223.00;;;;4798228;29;20078;-82
2021/11/22 03:33:46;;;;;;;0.20;0.20;;;;;17.90;100225.00;;;;4784325;29;20059;-82
2021/11/22 03:36:16;;;;;;;0.20;0.20;;;;;17.80;100235.00;;;;4783144;30;20066;-80
2021/11/22 03:38:45;;;;;;;0.10;0.10;;;;;17.80;100216.00;;;;4784628;29;20100;-83
2021/11/22 03:41:17;;;;;;;0.10;0.10;;;;;17.70;100217.00;;;;4782973;29;20055;-78
2021/11/22 03:44:10;;;;;;;0.00;0.00;;;;;17.60;100216.00;;;;4784819;29;20418;-82
2021/11/22 03:46:43;;;;;;;0.55;0.30;;;;;17.60;100224.00;;;;4784724;30;20508;-83
2021/11/22 03:49:12;;;;;;;0.00;0.00;;;;;17.40;100210.00;;;;4784920;30;20122;-80
2021/11/22 03:51:46;;;;;;;0.00;0.00;;;;;17.30;100200.00;;;;4783997;30;20051;-80
2021/11/22 03:54:17;;;;;;;0.00;0.00;;;;;17.40;100196.00;;;;4784200;29;20074;-81
2021/11/22 03:56:47;;;;;;;0.00;0.00;;;;;17.30;100208.00;;;;4784108;29;20108;-80
2021/11/22 03:59:16;;;;;;;0.57;0.28;;;;;17.30;100188.00;;;;4783277;29;20066;-82
2021/11/22 04:01:45;;;;;;;0.00;0.00;;;;;17.30;100196.00;;;;4784383;29;20043;-81
2021/11/22 04:04:15;;;;;;;0.00;0.00;;;;;17.30;100190.00;;;;4797518;29;20063;-83
2021/11/22 04:06:45;;;;;;;0.00;0.00;;;;;17.30;100186.00;;;;4783856;29;20519;-82
2021/11/22 04:09:14;;;;;;;0.70;0.45;;;;;17.20;100177.00;;;;4783710;29;20043;-82
2021/11/22 04:11:43;;;;;;;1.25;0.45;;;;;17.20;100168.00;;;;4784483;29;20047;-79
2021/11/22 04:14:13;;;;;;;0.52;0.10;;;;;17.30;100165.00;;;;4782354;29;20093;-79
2021/11/22 04:16:42;;;;;;;0.10;0.10;;;;;17.30;100166.00;;;;4783756;29;20051;-80
2021/11/22 04:19:11;;;;;;;0.40;0.40;;;;;17.20;100165.00;;;;4782616;30;20079;-82
2021/11/22 04:21:41;;;;;;;0.00;0.00;;;;;17.20;100165.00;;;;4783950;29;20664;-82
2021/11/22 04:24:10;;;;;;;0.00;0.00;;;;;17.20;100163.00;;;;4783939;29;20063;-82
2021/11/22 04:26:39;;;;;;;1.38;0.47;;;;;17.30;100162.00;;;;4782876;29;20048;-82
2021/11/22 04:29:09;;;;;;;0.00;0.00;;;;;17.30;100154.00;;;;4790233;29;20039;-78
2021/11/22 04:31:38;;;;;;;0.10;0.10;;;;;17.30;100169.00;;;;4787607;29;21069;-82
2021/11/22 04:34:07;;;;;;;0.10;0.10;;;;;17.10;100154.00;;;;4782893;29;20043;-78
2021/11/22 04:36:37;;;;;;;0.08;0.08;;;;;17.10;100159.00;;;;4782615;30;20051;-79
2021/11/22 04:39:06;;;;;;;0.30;0.30;;;;;17.00;100146.00;;;;4782319;30;20059;-81
2021/11/22 04:41:36;;;;;;;0.00;0.00;;;;;17.00;100149.00;;;;4781870;29;20439;-82
2021/11/22 04:44:05;;;;;;;0.00;0.00;;;;;17.00;100152.00;;;;4783315;30;20055;-80
2021/11/22 04:46:34;;;;;;;1.08;0.35;;;;;16.90;100146.00;;;;4783578;29;20047;-79
2021/11/22 04:49:04;;;;;;;0.00;0.00;;;;;17.00;100138.00;;;;4767321;29;20051;-83
2021/11/22 04:51:34;;;;;;;0.00;0.00;;;;;17.00;100134.00;;;;4783140;29;20116;-83
2021/11/22 04:54:03;;;;;;;0.00;0.00;;;;;16.90;100148.00;;;;4783515;29;20504;-81
2021/11/22 04:56:33;;;;;;;0.00;0.00;;;;;16.80;100134.00;;;;4783347;30;20054;-80
2021/11/22 04:59:03;;;;;;;0.13;0.13;;;;;16.70;100134.00;;;;4782247;29;20051;-84
2021/11/22 05:01:32;;;;;;;0.10;0.10;;;;;16.70;100116.00;;;;4782847;29;20059;-81
2021/11/22 05:04:02;;;;;;;0.00;0.00;;;;;16.60;100146.00;;;;4781690;29;20086;-80
2021/11/22 05:06:31;;;;;;;0.00;0.00;;;;;16.50;100131.00;;;;4783068;29;20059;-83
2021/11/22 05:09:00;;;;;;;0.15;0.15;;;;;16.60;100135.00;;;;4783073;29;20050;-81
2021/11/22 05:11:30;;;;;;;0.00;0.00;;;;;16.60;100138.00;;;;4783780;30;20514;-82
2021/11/22 05:14:00;;;;;;;0.00;0.00;;;;;16.60;100146.00;;;;4781202;29;20059;-82
2021/11/22 05:16:29;;;;;;;0.00;0.00;;;;;16.60;100146.00;;;;4781453;29;20051;-81
2021/11/22 05:18:59;;;;;;;0.20;0.20;;;;;16.70;100131.00;;;;4781627;30;20059;-81
2021/11/22 05:21:31;;;;;;;0.00;0.00;;;;;16.80;100120.00;;;;4783355;29;20584;-78
2021/11/22 05:24:02;;;;;;;0.30;0.30;;;;;16.60;100127.00;;;;4782931;29;20051;-80
2021/11/22 05:26:32;;;;;;;0.00;0.00;;;;;16.50;100106.00;;;;4782302;29;20108;-83
2021/11/22 05:29:03;;;;;;;1.67;0.57;;;;;16.50;100115.00;;;;4782841;29;20128;-82
2021/11/22 05:31:33;;;;;;;;;;;;;16.50;100113.00;;;;4782986;29;20515;-80
2021/11/22 05:34:03;;;;;;;0.00;0.00;;;;;16.50;100105.00;;;;4782046;29;19998;-83
2021/11/22 05:36:35;;;;;;;0.00;0.00;;;;;16.30;100097.00;;;;4782294;29;20462;-83
2021/11/22 05:39:06;;;;;;;0.00;0.00;;;;;16.20;100095.00;;;;4781543;30;20137;-84
2021/11/22 05:41:36;;;;;;;0.00;0.00;;;;;16.30;100102.00;;;;4783127;29;20051;-78
2021/11/22 05:44:05;;;;;;;0.00;0.00;;;;;16.20;100111.00;;;;4782345;29;20610;-77
2021/11/22 05:46:35;;;;;;;0.10;0.10;;;;;16.20;100092.00;;;;4781429;29;20108;-82
2021/11/22 05:49:04;;;;;;;0.08;0.08;;;;;16.20;100096.00;;;;4782503;29;20520;-78
2021/11/22 05:51:34;;;;;;;0.57;0.57;;;;;16.20;100101.00;;;;4782201;30;20063;-82
2021/11/22 05:54:03;;;;;;;0.22;0.22;;;;;16.20;100116.00;;;;4782510;29;20047;-79
2021/11/22 05:56:32;;;;;;;0.00;0.00;;;;;16.20;100099.00;;;;4782314;29;20485;-79
2021/11/22 05:59:02;;;;;;;0.10;0.10;;;;;16.20;100095.00;;;;4781721;29;20554;-83
2021/11/22 06:01:32;;;;;;;0.10;0.10;;;;;16.10;100101.00;;;;4780871;30;20466;-79
2021/11/22 06:04:01;;;;;;;0.20;0.20;;;;;16.00;100106.00;;;;4780472;30;20528;-80
2021/11/22 06:06:30;;;;;;;0.10;0.10;;;;;16.00;100089.00;;;;4780617;30;20059;-80
2021/11/22 06:09:00;;;;;;;0.10;0.10;;;;;15.90;100101.00;;;;4782225;29;20512;-82
2021/11/22 06:11:30;;;;;;;0.43;0.38;;;;;15.90;100106.00;;;;4782692;29;20056;-77
2021/11/22 06:13:59;;;;;;;0.00;0.00;;;;;15.90;100091.00;;;;4781654;30;20466;-80
2021/11/22 06:16:29;;;;;;;0.00;0.00;;;;;15.80;100090.00;;;;4782674;29;20047;-80
2021/11/22 06:18:58;;;;;;;0.10;0.10;;;;;15.80;100098.00;;;;4782047;29;20581;-78
2021/11/22 06:21:28;;;;;;;0.20;0.20;;;;;15.80;100091.00;;;;4781292;30;20105;-81
2021/11/22 06:24:00;;;;;;;0.17;0.13;;;;;15.80;100093.00;;;;4781914;29;21032;-79
2021/11/22 06:26:31;;;;;;;0.32;0.32;;;;;15.90;100095.00;;;;4783406;29;20130;-82
2021/11/22 06:29:01;;;;;;;0.25;0.25;;;;;15.90;100098.00;;;;4785212;29;20063;-81
2021/11/22 06:31:30;;;;;;;0.10;0.10;;;;;15.80;100095.00;;;;4784323;29;20135;-82
2021/11/22 06:34:00;;;;;;;0.00;0.00;;;;;15.80;100098.00;;;;4785749;29;20059;-78
2021/11/22 06:36:29;;;;;;;0.00;0.00;;;;;15.70;100088.00;;;;4784502;29;20051;-83
2021/11/22 06:38:59;;;;;;;0.00;0.00;;;;;15.70;100096.00;;;;4785660;29;20520;-82
2021/11/22 06:41:28;;;;;;;0.00;0.00;;;;;15.60;100096.00;;;;4783731;30;20572;-76
2021/11/22 06:43:57;;;;;;;0.00;0.00;;;;;15.60;100076.00;;;;4784091;29;20059;-77
2021/11/22 06:46:27;;;;;;;0.00;0.00;;;;;15.60;100101.00;;;;4784438;30;20047;-82
2021/11/22 06:48:56;;;;;;;0.20;0.20;;;;;15.60;100104.00;;;;4783878;29;20492;-80
2021/11/22 06:51:26;;;;;;;0.52;0.20;;;;;15.70;100093.00;;;;4785119;29;20266;-81
2021/11/22 06:53:55;;;;;;;0.55;0.40;;;;;15.70;100103.00;;;;4783479;30;20063;-78
2021/11/22 06:56:25;;;;;;;0.30;0.20;;;;;15.70;100089.00;;;;4785372;29;20078;-81
2021/11/22 06:58:54;;;;;;;0.00;0.00;;;;;15.70;100092.00;;;;4785880;29;20051;-79
2021/11/22 07:01:23;;;;;;;0.10;0.10;;;;;15.70;100102.00;;;;4785201;29;20104;-79
2021/11/22 07:03:53;;;;;;;0.00;0.00;;;;;15.60;100101.00;;;;4785180;29;20124;-82
2021/11/22 07:06:22;;;;;;;0.10;0.10;;;;;15.60;100098.00;;;;4785206;29;20055;-79
2021/11/22 07:08:52;;;;;;;0.20;0.20;;;;;15.50;100107.00;;;;4791102;29;20071;-78
2021/11/22 07:11:21;;;;;;;0.30;0.10;;;;;15.40;100104.00;;;;4789450;29;20104;-79
2021/11/22 07:13:50;;;;;;;0.00;0.00;;;;;15.40;100108.00;;;;4785078;29;20063;-79
2021/11/22 07:16:21;;;;;;;0.00;0.00;;;;;15.40;100120.00;;;;4784631;30;20047;-79
2021/11/22 07:18:54;;;;;;;0.00;0.00;;;;;15.30;100125.00;;;;4784830;30;20584;-82
2021/11/22 07:21:23;;;;;;;0.00;0.00;;;;;15.20;100118.00;;;;4784517;29;20051;-78
2021/11/22 07:23:53;;;;;;;0.00;0.00;;;;;15.20;100112.00;;;;4784515;29;20141;-80
2021/11/22 07:26:22;;;;;;;0.47;0.22;;;;;15.20;100111.00;;;;4784550;29;20150;-81
2021/11/22 07:28:51;;;;;;;0.00;0.00;;;;;15.20;100119.00;;;;4782905;29;20120;-81
2021/11/22 07:31:21;;;;;;;0.00;0.00;;;;;15.10;100116.00;;;;4768333;29;20122;-80
2021/11/22 07:33:50;;;;;;;0.25;0.22;;;;;15.10;100099.00;;;;4784416;29;20105;-79
2021/11/22 07:36:20;;;;;;;0.13;0.10;;;;;15.20;100096.00;;;;4784221;30;20055;-78
2021/11/22 07:38:49;;;;;;;0.98;0.63;;;;;15.20;100118.00;;;;4784203;29;20055;-81
2021/11/22 07:41:19;;;;;;;0.95;0.38;;;;;15.10;100105.00;;;;4784695;29;20051;-78
2021/11/22 11:33:56;;;;;;;0.00;0.00;;;;;32.60;99975.00;;;;5145980;27;20435;-82
2021/11/22 11:36:34;;;;;;;;;;;;;32.20;99990.00;;;;5125984;28;20082;-83
2021/11/22 11:39:24;;;;;;;0.00;0.00;;;;;31.10;100002.00;;;;5108548;28;20335;-82
2021/11/22 11:42:08;;;;;;;0.05;0.05;;;;;31.10;100100.00;;;;5109040;28;20051;-85
2021/11/22 11:44:59;;;;;;;0.03;0.03;;;;;30.70;100128.00;;;;5069615;28;20467;-82
2021/11/22 11:47:37;;;;;;;0.17;0.17;;;;;30.50;100140.00;;;;5104336;28;20071;-83
2021/11/22 11:50:33;;;;;;;0.00;0.00;;;;;30.00;100146.00;;;;5086140;28;20048;-82
2021/11/22 11:53:18;;;;;;;0.00;0.00;;;;;29.80;100147.00;;;;5103539;28;20506;-83
2021/11/22 11:56:11;;;;;;;0.00;0.00;;;;;29.60;100143.00;;;;5104517;28;20036;-83
2021/11/22 11:58:42;;;;;;;0.65;0.20;;;;;30.10;100146.00;;;;5104920;28;20067;-82
2021/11/22 12:01:18;;;;;;;3.40;0.63;;;;;30.00;100146.00;;;;5104215;28;20113;-82
2021/11/22 12:04:04;;;;;;;0.00;0.00;;;;;30.60;100148.00;;;;5119062;28;20043;-83
2021/11/22 12:06:47;;;;;;;0.00;0.00;;;;;30.50;100130.00;;;;5114185;28;20083;-81
2021/11/22 12:09:29;;;;;;;6.72;4.20;;;;;30.60;100132.00;;;;5104481;28;20040;-81
2021/11/22 12:12:01;;;;;;;0.00;0.00;;;;;30.90;100140.00;;;;5103939;28;20039;-82
2021/11/22 12:14:55;;;;;;;0.00;0.00;;;;;31.10;100131.00;;;;5103819;28;20173;-82
2021/11/22 12:17:39;;;;;;;0.00;0.00;;;;;31.10;100131.00;;;;5103773;28;20040;-81
2021/11/22 12:20:29;;;;;;;0.10;0.10;;;;;31.10;100124.00;;;;5103715;28;20078;-82
2021/11/22 12:23:03;;;;;;;1.08;0.20;;;;;31.30;100129.00;;;;5088530;28;20104;-80
2021/11/22 12:25:42;;;;;;;0.00;0.00;;;;;31.30;100133.00;;;;5068686;28;20051;-82
2021/11/22 12:28:17;;;;;;;0.68;0.47;;;;;31.60;100130.00;;;;5103567;28;20040;-82
2021/11/22 12:30:55;;;;;;;7.85;1.60;;;;;31.40;100125.00;;;;5103323;28;20040;-82
2021/11/22 12:33:29;;;;;;;1.00;0.55;;;;;31.10;100118.00;;;;5103653;28;20138;-85
2021/11/22 12:36:04;;;;;;;0.00;0.00;;;;;31.80;100129.00;;;;5103448;28;20044;-84
2021/11/22 12:38:44;;;;;;;1.65;1.10;;;;;31.80;100131.00;;;;5103372;28;20123;-81
2021/11/22 12:41:33;;;;;;;0.00;0.00;;;;;31.70;100141.00;;;;5103740;28;20044;-83
2021/11/22 12:44:08;;;;;;;0.15;0.15;;;;;31.40;100133.00;;;;5096710;28;20040;-81
2021/11/22 12:46:41;;;;;;;5.32;0.75;;;;;31.90;100141.00;;;;5089897;28;20466;-84
2021/11/22 12:49:40;;;;;;;0.22;0.22;;;;;31.80;100132.00;;;;5089652;28;20036;-84
2021/11/22 12:52:22;;;;;;;4.47;0.63;;;;;32.20;100133.00;;;;5090231;28;20063;-81
2021/11/22 12:55:09;;;;;;;0.20;0.20;;;;;32.30;100147.00;;;;5089554;28;20060;-82
2021/11/22 12:57:43;;;;;;;0.22;0.20;;;;;32.70;100148.00;;;;5089487;28;20119;-81
2021/11/22 13:00:14;;;;;;;9.98;0.57;;;;;32.30;100153.00;;;;5090549;28;20063;-83
2021/11/22 13:02:47;;;;;;;4.30;0.43;;;;;32.60;100148.00;;;;5090397;28;20513;-82
2021/11/22 13:05:44;;;;;;;0.00;0.00;;;;;32.60;100145.00;;;;5089882;28;20044;-82
2021/11/22 13:08:17;;;;;;;1.08;0.32;;;;;32.80;100136.00;;;;5070490;28;20052;-83
2021/11/22 13:11:01;;;;;;;0.00;0.00;;;;;32.90;100136.00;;;;5089313;28;20056;-83
2021/11/22 13:16:35;;;;;;;2.05;0.40;;;;;33.00;100134.00;;;;5071067;28;20047;-81
2021/11/22 13:19:10;;;;;;;0.00;0.00;;;;;33.30;100135.00;;;;5068793;28;20055;-82
2021/11/22 13:21:53;;;;;;;0.15;0.08;;;;;33.60;100142.00;;;;5089485;28;20032;-81
2021/11/22 13:24:29;;;;;;;0.10;0.10;;;;;33.30;100142.00;;;;5071085;28;20059;-82
2021/11/22 13:27:04;;;;;;;0.00;0.00;;;;;33.70;100137.00;;;;5088536;28;20050;-83
2021/11/22 13:29:35;;;;;;;0.00;0.00;;;;;34.00;100131.00;;;;5089145;28;20051;-79
2021/11/22 13:32:05;;;;;;;0.00;0.00;;;;;34.20;100136.00;;;;5088641;28;20044;-81
2021/11/22 13:34:35;;;;;;;0.10;0.10;;;;;34.00;100134.00;;;;5089014;28;20080;-80
2021/11/22 13:37:07;;;;;;;0.25;0.25;;;;;33.70;100125.00;;;;5088797;28;20055;-81
2021/11/22 13:39:40;;;;;;;1.13;0.40;;;;;33.90;100131.00;;;;5088584;28;20510;-82
2021/11/22 13:42:19;;;;;;;0.00;0.00;;;;;33.70;100121.00;;;;5088604;28;20039;-80
2021/11/22 13:44:53;;;;;;;0.00;0.00;;;;;33.90;100120.00;;;;5088784;28;20040;-81
2021/11/22 13:47:26;;;;;;;0.08;0.05;;;;;33.90;100115.00;;;;5088200;28;20518;-84
2021/11/22 13:49:57;;;;;;;0.43;0.30;;;;;34.40;100117.00;;;;5089104;28;20047;-82
2021/11/22 13:52:27;;;;;;;0.25;0.25;;;;;34.30;100119.00;;;;5089196;28;20048;-80
2021/11/22 13:54:58;;;;;;;0.00;0.00;;;;;34.30;100115.00;;;;5069769;28;20080;-82
2021/11/22 13:57:27;;;;;;;0.17;0.17;;;;;34.40;100102.00;;;;5088015;28;20143;-82
2021/11/22 13:59:57;;;;;;;0.20;0.17;;;;;34.60;100106.00;;;;5088342;28;20575;-81
2021/11/22 14:02:28;;;;;;;0.10;0.08;;;;;34.50;100095.00;;;;5087953;28;20044;-83
2021/11/22 14:05:00;;;;;;;0.00;0.00;;;;;34.90;100101.00;;;;5088799;28;20036;-81
2021/11/22 14:07:58;;;;;;;0.22;0.15;;;;;35.10;100088.00;;;;5088284;28;20051;-79
2021/11/22 14:10:38;;;;;;;0.90;0.40;;;;;35.00;100095.00;;;;5087921;28;20046;-81
2021/11/22 14:13:14;;;;;;;6.90;0.63;;;;;35.10;100091.00;;;;5088704;28;20465;-81
2021/11/22 14:15:46;;;;;;;0.28;0.28;;;;;35.10;100087.00;;;;5088020;28;20036;-81
2021/11/22 14:18:21;;;;;;;0.55;0.45;;;;;35.10;100102.00;;;;5087995;28;20160;-81
2021/11/22 14:20:52;;;;;;;0.22;0.22;;;;;34.90;100075.00;;;;5097195;28;20075;-80
2021/11/22 14:23:28;;;;;;;0.30;0.30;;;;;35.00;100084.00;;;;5089104;28;20048;-80
2021/11/22 14:26:03;;;;;;;0.05;0.05;;;;;35.10;100064.00;;;;5087910;28;20448;-82
2021/11/22 14:28:45;;;;;;;0.40;0.32;;;;;35.50;100064.00;;;;5069759;28;20059;-81
2021/11/22 14:31:26;;;;;;;0.00;0.00;;;;;35.50;100073.00;;;;5069855;28;20085;-83
2021/11/22 14:34:08;;;;;;;0.90;0.70;;;;;35.60;100068.00;;;;5087743;28;20056;-80
2021/11/22 14:36:43;;;;;;;0.00;0.00;;;;;35.30;100056.00;;;;5087933;28;20474;-80
2021/11/22 14:39:14;;;;;;;0.30;0.28;;;;;35.50;100045.00;;;;5068984;28;20046;-79
2021/11/22 14:41:47;;;;;;;0.17;0.17;;;;;35.90;100056.00;;;;5087501;28;20044;-84
2021/11/22 14:44:19;;;;;;;0.00;0.00;;;;;35.90;100048.00;;;;5087236;28;20109;-80
2021/11/22 14:46:54;;;;;;;0.00;0.00;;;;;36.00;100048.00;;;;5088204;28;20046;-80
2021/11/22 14:49:44;;;;;;;1.33;0.30;;;;;36.40;100039.00;;;;5087149;28;20044;-81
2021/11/22 14:52:18;;;;;;;0.10;0.10;;;;;36.70;100045.00;;;;5086476;28;20052;-80
2021/11/22 14:54:48;;;;;;;0.00;0.00;;;;;36.40;100018.00;;;;5087968;28;20050;-79
2021/11/22 14:57:21;;;;;;;0.00;0.00;;;;;36.70;100031.00;;;;5087830;28;20058;-80
2021/11/22 14:59:50;;;;;;;0.00;0.00;;;;;36.90;100027.00;;;;5087468;28;20075;-81
2021/11/22 15:02:28;;;;;;;0.00;0.00;;;;;36.80;100023.00;;;;5087369;28;20097;-78
2021/11/22 15:04:58;;;;;;;0.40;0.30;;;;;37.00;100019.00;;;;5087000;28;20081;-81
2021/11/22 15:07:28;;;;;;;0.00;0.00;;;;;37.00;100012.00;;;;5087000;28;20044;-80
2021/11/22 15:10:07;;;;;;;0.88;0.38;;;;;36.90;100018.00;;;;5087755;28;20043;-83
2021/11/22 15:12:39;;;;;;;0.00;0.00;;;;;36.70;100019.00;;;;5087717;28;20051;-79
2021/11/22 15:15:15;;;;;;;0.10;0.10;;;;;36.80;100007.00;;;;5069624;28;20431;-82
2021/11/22 15:17:48;;;;;;;0.13;0.13;;;;;37.50;100004.00;;;;5087356;28;20540;-80
2021/11/22 15:20:18;;;;;;;0.00;0.00;;;;;37.80;99983.00;;;;5087544;28;20073;-80
2021/11/22 15:22:47;;;;;;;0.00;0.00;;;;;37.40;99986.00;;;;5068450;28;20059;-81
2021/11/22 15:25:16;;;;;;;0.10;0.10;;;;;37.40;99984.00;;;;5087103;28;20448;-80
2021/11/22 15:27:50;;;;;;;0.80;0.60;;;;;37.50;99989.00;;;;5086697;28;20089;-80
2021/11/22 15:30:21;;;;;;;0.00;0.00;;;;;37.10;99980.00;;;;5086836;28;20052;-80
2021/11/22 15:32:50;;;;;;;0.08;0.08;;;;;37.20;99973.00;;;;5087367;28;20067;-81
2021/11/22 15:35:20;;;;;;;0.20;0.20;;;;;37.20;99989.00;;;;5086792;28;20417;-80
2021/11/22 15:37:50;;;;;;;0.25;0.25;;;;;37.30;99979.00;;;;5087396;28;20044;-80
2021/11/22 15:40:21;;;;;;;0.10;0.10;;;;;36.90;99968.00;;;;5068810;28;20093;-80
2021/11/22 15:42:51;;;;;;;0.10;0.05;;;;;37.50;99970.00;;;;5087269;28;20036;-82
2021/11/22 15:45:21;;;;;;;0.00;0.00;;;;;37.20;99969.00;;;;5086890;28;20074;-79
2021/11/22 15:47:51;;;;;;;0.20;0.20;;;;;37.10;99951.00;;;;5069714;28;20123;-80
2021/11/22 15:50:20;;;;;;;4.80;0.63;;;;;37.50;99959.00;;;;5068638;28;20403;-81
2021/11/22 15:52:50;;;;;;;0.00;0.00;;;;;37.20;99959.00;;;;5086644;28;20094;-80
2021/11/22 15:55:19;;;;;;;0.10;0.10;;;;;37.30;99958.00;;;;5086882;28;20044;-83
2021/11/22 15:57:49;;;;;;;0.33;0.33;;;;;37.90;99954.00;;;;5086624;28;20043;-81
2021/11/22 16:00:19;;;;;;;0.75;0.32;;;;;37.50;99953.00;;;;5086744;28;20047;-80
2021/11/22 16:02:50;;;;;;;0.00;0.00;;;;;37.90;99941.00;;;;5087317;28;20402;-82
2021/11/22 16:05:20;;;;;;;0.00;0.00;;;;;37.90;99941.00;;;;5085925;28;20565;-81
2021/11/22 16:07:50;;;;;;;0.30;0.30;;;;;37.70;99948.00;;;;5086807;28;20089;-81
2021/11/22 16:10:19;;;;;;;0.10;0.10;;;;;37.40;99939.00;;;;5087335;28;20044;-83
2021/11/22 16:12:49;;;;;;;0.10;0.10;;;;;38.30;99920.00;;;;5086650;28;20426;-84
2021/11/22 16:15:19;;;;;;;0.00;0.00;;;;;38.20;99916.00;;;;5087397;28;20043;-81
2021/11/22 16:17:48;;;;;;;0.13;0.13;;;;;38.40;99913.00;;;;5086881;28;20704;-82
2021/11/22 16:20:17;;;;;;;0.35;0.28;;;;;38.30;99906.00;;;;5071885;28;20947;-83
2021/11/22 16:22:47;;;;;;;0.30;0.30;;;;;37.80;99902.00;;;;5090358;28;20069;-81
2021/11/22 16:25:16;;;;;;;0.00;0.00;;;;;38.40;99887.00;;;;5089921;28;20101;-80
2021/11/22 16:27:46;;;;;;;0.00;0.00;;;;;38.50;99894.00;;;;5090674;28;20048;-80
2021/11/22 16:30:16;;;;;;;0.00;0.00;;;;;38.60;99890.00;;;;5097272;28;20062;-81